createdAt,value
2022-07-30T00:00:24.704Z,25.42
2022-07-30T00:02:52.717Z,25.29
2022-07-30T00:05:19.795Z,25.18
2022-07-30T00:07:46.549Z,25.29
2022-07-30T00:10:13.415Z,25.47
2022-07-30T00:12:40.377Z,25.69
2022-07-30T00:15:07.728Z,25.65
2022-07-30T00:17:34.546Z,25.70
2022-07-30T00:20:01.383Z,25.91
2022-07-30T00:22:30.901Z,25.12
2022-07-30T00:24:57.677Z,25.65
2022-07-30T00:27:24.536Z,25.32
2022-07-30T00:29:51.355Z,25.25
2022-07-30T00:32:18.209Z,25.51
2022-07-30T00:34:44.974Z,25.53
2022-07-30T00:37:11.749Z,25.04
2022-07-30T00:39:38.574Z,25.08
2022-07-30T00:42:05.415Z,24.86
2022-07-30T00:44:32.445Z,24.96
2022-07-30T00:46:59.661Z,25.13
2022-07-30T00:49:27.066Z,25.12
2022-07-30T00:51:53.970Z,24.35
2022-07-30T00:54:21.666Z,24.45
2022-07-30T00:56:49.105Z,24.76
2022-07-30T00:59:16.527Z,24.90
2022-07-30T01:01:43.495Z,24.80
2022-07-30T01:04:11.991Z,24.66
2022-07-30T01:06:40.394Z,24.86
2022-07-30T01:09:07.860Z,24.97
2022-07-30T01:11:38.799Z,24.94
2022-07-30T01:14:07.195Z,25.00
2022-07-30T01:16:39.906Z,24.85
2022-07-30T01:19:32.476Z,24.85
2022-07-30T01:22:11.026Z,24.76
2022-07-30T01:24:43.032Z,25.01
2022-07-30T01:27:13.151Z,25.06
2022-07-30T01:29:43.406Z,24.95
2022-07-30T01:32:12.235Z,25.01
2022-07-30T01:34:40.235Z,25.06
2022-07-30T01:37:10.686Z,25.09
2022-07-30T01:39:39.889Z,25.11
2022-07-30T01:42:09.355Z,25.07
2022-07-30T01:44:38.135Z,25.30
2022-07-30T01:47:06.433Z,25.18
2022-07-30T01:49:35.655Z,25.09
2022-07-30T01:52:04.365Z,25.11
2022-07-30T01:54:33.804Z,25.16
2022-07-30T01:57:02.785Z,25.06
2022-07-30T01:59:32.204Z,24.61
2022-07-30T02:01:59.702Z,24.70
2022-07-30T02:04:27.565Z,24.77
2022-07-30T02:07:04.400Z,24.78
2022-07-30T02:09:38.235Z,24.69
2022-07-30T02:12:25.006Z,24.65
2022-07-30T02:14:56.616Z,24.60
2022-07-30T02:17:30.192Z,24.11
2022-07-30T02:20:06.688Z,23.87
2022-07-30T02:22:39.805Z,24.29
2022-07-30T02:25:09.145Z,24.22
2022-07-30T02:27:39.035Z,24.01
2022-07-30T02:30:07.452Z,23.89
2022-07-30T02:32:37.715Z,23.61
2022-07-30T02:35:20.555Z,24.08
2022-07-30T02:37:52.794Z,23.61
2022-07-30T02:40:21.256Z,23.79
2022-07-30T02:42:52.525Z,23.82
2022-07-30T02:45:21.491Z,23.13
2022-07-30T02:47:55.198Z,23.46
2022-07-30T02:50:24.686Z,23.35
2022-07-30T02:52:53.378Z,22.99
2022-07-30T02:55:21.635Z,22.95
2022-07-30T02:57:50.535Z,23.10
2022-07-30T03:00:17.620Z,23.10
2022-07-30T03:02:46.367Z,22.71
2022-07-30T03:05:15.106Z,22.66
2022-07-30T03:07:42.935Z,22.89
2022-07-30T03:10:11.505Z,23.39
2022-07-30T03:12:40.796Z,22.89
2022-07-30T03:15:08.314Z,22.99
2022-07-30T03:17:43.773Z,22.96
2022-07-30T03:20:19.067Z,23.67
2022-07-30T03:22:51.006Z,23.79
2022-07-30T03:25:23.649Z,23.57
2022-07-30T03:27:52.285Z,23.93
2022-07-30T03:30:19.234Z,23.94
2022-07-30T03:32:47.156Z,23.91
2022-07-30T03:35:17.429Z,23.54
2022-07-30T03:37:48.995Z,23.58
2022-07-30T03:40:16.492Z,23.76
2022-07-30T03:42:45.638Z,23.91
2022-07-30T03:45:15.699Z,23.89
2022-07-30T03:47:44.765Z,23.79
2022-07-30T03:50:12.631Z,23.47
2022-07-30T03:52:41.024Z,23.27
2022-07-30T03:55:11.514Z,23.56
2022-07-30T03:57:38.716Z,23.70
2022-07-30T04:00:14.156Z,23.51
2022-07-30T04:02:44.215Z,23.25
2022-07-30T04:05:12.535Z,22.90
2022-07-30T04:07:41.341Z,22.62
2022-07-30T04:10:12.961Z,22.98
2022-07-30T04:12:39.797Z,23.30
2022-07-30T04:16:05.058Z,23.01
2022-07-30T04:17:59.112Z,22.86
2022-07-30T04:20:34.856Z,22.77
2022-07-30T04:23:02.915Z,22.62
2022-07-30T04:25:30.786Z,22.80
2022-07-30T04:28:02.902Z,22.84
2022-07-30T04:30:30.920Z,23.08
2022-07-30T04:32:57.668Z,23.21
2022-07-30T04:35:51.627Z,23.25
2022-07-30T04:38:20.130Z,23.13
2022-07-30T04:40:47.323Z,23.29
2022-07-30T04:43:14.613Z,23.25
2022-07-30T04:45:42.130Z,22.96
2022-07-30T04:48:09.214Z,22.92
2022-07-30T04:50:39.406Z,23.09
2022-07-30T04:53:06.227Z,23.42
2022-07-30T04:55:34.695Z,23.39
2022-07-30T04:58:02.190Z,23.37
2022-07-30T05:00:32.330Z,23.65
2022-07-30T05:03:02.569Z,23.96
2022-07-30T05:05:32.547Z,23.62
2022-07-30T05:08:00.201Z,23.90
2022-07-30T05:10:27.836Z,23.74
2022-07-30T05:12:54.557Z,23.48
2022-07-30T05:15:21.404Z,23.53
2022-07-30T05:17:48.896Z,23.96
2022-07-30T05:20:15.845Z,23.60
2022-07-30T05:22:42.924Z,23.98
2022-07-30T05:25:18.025Z,23.61
2022-07-30T05:27:44.747Z,23.60
2022-07-30T05:30:12.005Z,23.34
2022-07-30T05:32:39.956Z,23.54
2022-07-30T05:35:07.116Z,23.40
2022-07-30T05:37:34.796Z,23.40
2022-07-30T05:40:03.347Z,23.50
2022-07-30T05:42:30.561Z,23.63
2022-07-30T05:44:57.520Z,23.62
2022-07-30T05:47:24.363Z,23.64
2022-07-30T05:49:51.127Z,23.71
2022-07-30T05:52:17.876Z,23.32
2022-07-30T05:54:45.471Z,23.40
2022-07-30T05:57:12.375Z,22.97
2022-07-30T05:59:39.298Z,22.39
2022-07-30T06:02:07.000Z,22.62
2022-07-30T06:04:35.739Z,22.35
2022-07-30T06:07:03.444Z,21.99
2022-07-30T06:09:36.928Z,21.75
2022-07-30T06:12:04.939Z,21.42
2022-07-30T06:14:32.450Z,21.86
2022-07-30T06:16:59.622Z,22.04
2022-07-30T06:19:26.715Z,21.62
2022-07-30T06:22:05.832Z,21.43
2022-07-30T06:24:34.100Z,21.50
2022-07-30T06:27:01.657Z,20.78
2022-07-30T06:29:28.708Z,21.53
2022-07-30T06:31:55.656Z,20.87
2022-07-30T06:34:22.625Z,20.90
2022-07-30T06:36:49.716Z,20.78
2022-07-30T06:39:53.895Z,21.06
2022-07-30T06:42:04.656Z,20.49
2022-07-30T06:44:31.666Z,20.39
2022-07-30T06:46:58.986Z,19.59
2022-07-30T06:49:27.847Z,19.71
2022-07-30T06:51:54.637Z,20.08
2022-07-30T06:54:21.436Z,20.57
2022-07-30T06:56:48.236Z,20.77
2022-07-30T06:59:15.838Z,21.26
2022-07-30T07:01:42.672Z,21.54
2022-07-30T07:04:09.858Z,21.65
2022-07-30T07:06:36.586Z,21.99
2022-07-30T07:09:03.884Z,21.87
2022-07-30T07:11:31.386Z,22.24
2022-07-30T07:14:02.625Z,22.31
2022-07-30T07:16:31.304Z,22.36
2022-07-30T07:18:58.126Z,22.18
2022-07-30T07:21:25.246Z,22.33
2022-07-30T07:23:52.187Z,21.41
2022-07-30T07:26:19.245Z,22.10
2022-07-30T07:28:45.997Z,21.92
2022-07-30T07:32:05.202Z,21.65
2022-07-30T07:33:59.706Z,21.44
2022-07-30T07:36:26.987Z,21.60
2022-07-30T07:38:53.868Z,21.30
2022-07-30T07:41:20.927Z,21.69
2022-07-30T07:43:47.919Z,21.85
2022-07-30T07:46:16.841Z,21.45
2022-07-30T07:49:00.642Z,21.22
2022-07-30T07:51:47.447Z,21.51
2022-07-30T07:54:21.751Z,21.73
2022-07-30T07:56:51.707Z,21.46
2022-07-30T07:59:20.127Z,21.99
2022-07-30T08:01:47.259Z,21.18
2022-07-30T08:04:16.989Z,21.52
2022-07-30T08:06:44.025Z,21.44
2022-07-30T08:09:10.953Z,20.98
2022-07-30T08:11:37.887Z,21.51
2022-07-30T08:14:04.901Z,21.55
2022-07-30T08:16:31.790Z,21.28
2022-07-30T08:18:58.635Z,21.44
2022-07-30T08:21:25.538Z,21.60
2022-07-30T08:23:52.690Z,21.80
2022-07-30T08:26:19.649Z,22.14
2022-07-30T08:28:46.658Z,22.00
2022-07-30T08:31:13.597Z,22.30
2022-07-30T08:33:40.538Z,22.70
2022-07-30T08:36:09.546Z,22.54
2022-07-30T08:38:37.502Z,22.83
2022-07-30T08:41:04.408Z,23.10
2022-07-30T08:43:31.789Z,23.41
2022-07-30T08:46:00.714Z,23.26
2022-07-30T08:48:29.226Z,22.70
2022-07-30T08:50:56.836Z,22.30
2022-07-30T08:53:25.442Z,22.17
2022-07-30T08:55:56.844Z,22.13
2022-07-30T08:58:35.168Z,21.92
2022-07-30T09:01:02.859Z,22.27
2022-07-30T09:03:30.267Z,22.68
2022-07-30T09:05:57.469Z,22.65
2022-07-30T09:08:24.427Z,22.49
2022-07-30T09:10:53.484Z,22.23
2022-07-30T09:13:30.519Z,22.40
2022-07-30T09:15:58.049Z,22.42
2022-07-30T09:18:42.687Z,22.00
2022-07-30T09:21:21.247Z,22.56
2022-07-30T09:23:58.427Z,22.42
2022-07-30T09:26:27.166Z,22.19
2022-07-30T09:28:54.127Z,22.31
2022-07-30T09:31:22.898Z,22.60
2022-07-30T09:33:49.867Z,22.56
2022-07-30T09:36:18.397Z,22.90
2022-07-30T09:38:51.776Z,22.96
2022-07-30T09:41:38.731Z,22.79
2022-07-30T09:44:06.980Z,22.89
2022-07-30T09:46:47.903Z,22.66
2022-07-30T09:49:18.904Z,22.66
2022-07-30T09:51:55.755Z,22.67
2022-07-30T09:54:52.612Z,22.32
2022-07-30T09:57:25.555Z,22.71
2022-07-30T09:59:54.137Z,23.15
2022-07-30T10:02:29.717Z,22.82
2022-07-30T10:05:15.056Z,23.28
2022-07-30T10:07:53.476Z,23.57
2022-07-30T10:10:25.627Z,23.83
2022-07-30T10:12:59.227Z,23.79
2022-07-30T10:15:34.566Z,23.50
2022-07-30T10:18:02.976Z,23.54
2022-07-30T10:20:34.962Z,23.60
2022-07-30T10:23:08.037Z,23.37
2022-07-30T10:25:49.024Z,23.47
2022-07-30T10:28:18.074Z,23.89
2022-07-30T10:30:45.496Z,23.83
2022-07-30T10:33:34.602Z,24.11
2022-07-30T10:35:59.897Z,24.13
2022-07-30T10:38:33.549Z,23.93
2022-07-30T10:41:54.143Z,24.15
2022-07-30T10:44:58.794Z,24.57
2022-07-30T10:47:33.347Z,23.90
2022-07-30T10:50:10.643Z,23.51
2022-07-30T10:52:51.306Z,23.38
2022-07-30T10:55:36.813Z,24.05
2022-07-30T10:58:11.225Z,24.14
2022-07-30T11:00:53.784Z,24.38
2022-07-30T11:03:40.465Z,24.05
2022-07-30T11:06:24.388Z,24.38
2022-07-30T11:08:52.039Z,24.13
2022-07-30T11:11:59.303Z,23.89
2022-07-30T11:14:11.214Z,23.92
2022-07-30T11:16:39.601Z,24.69
2022-07-30T11:19:55.560Z,24.86
2022-07-30T11:22:36.856Z,25.23
2022-07-30T11:25:12.708Z,25.12
2022-07-30T11:27:48.974Z,25.14
2022-07-30T11:30:17.061Z,24.73
2022-07-30T11:33:18.617Z,24.76
2022-07-30T11:36:06.139Z,24.68
2022-07-30T11:38:52.496Z,25.39
2022-07-30T11:41:19.697Z,25.18
2022-07-30T11:43:46.555Z,25.65
2022-07-30T11:46:29.189Z,25.81
2022-07-30T11:49:08.723Z,25.93
2022-07-30T11:51:43.834Z,25.80
2022-07-30T11:54:12.266Z,26.30
2022-07-30T11:56:49.239Z,26.55
2022-07-30T11:59:16.249Z,26.43
2022-07-30T12:01:43.814Z,25.73
2022-07-30T12:04:10.828Z,25.19
2022-07-30T12:06:47.373Z,25.98
2022-07-30T12:09:27.512Z,25.73
2022-07-30T12:11:55.878Z,25.71
2022-07-30T12:14:22.784Z,25.75
2022-07-30T12:16:54.707Z,26.26
2022-07-30T12:19:21.839Z,25.79
2022-07-30T12:21:53.071Z,26.52
2022-07-30T12:24:26.498Z,25.97
2022-07-30T12:27:04.358Z,26.78
2022-07-30T12:29:35.422Z,27.44
2022-07-30T12:32:02.443Z,27.56
2022-07-30T12:34:29.534Z,27.24
2022-07-30T12:37:08.268Z,27.87
2022-07-30T12:39:35.128Z,28.00
2022-07-30T12:42:03.581Z,28.08
2022-07-30T12:44:37.927Z,27.76
2022-07-30T12:47:07.244Z,27.06
2022-07-30T12:49:37.827Z,27.43
2022-07-30T12:52:28.636Z,27.67
2022-07-30T12:55:11.341Z,27.60
2022-07-30T12:58:07.601Z,28.23
2022-07-30T13:00:44.346Z,27.61
2022-07-30T13:03:27.794Z,27.85
2022-07-30T13:05:56.574Z,27.99
2022-07-30T13:08:50.269Z,27.71
2022-07-30T13:11:18.224Z,27.89
2022-07-30T13:13:45.847Z,28.27
2022-07-30T13:16:13.426Z,28.44
2022-07-30T13:18:40.835Z,28.92
2022-07-30T13:21:09.420Z,27.79
2022-07-30T13:23:40.614Z,27.52
2022-07-30T13:26:08.837Z,27.73
2022-07-30T13:28:35.987Z,27.75
2022-07-30T13:31:03.216Z,28.28
2022-07-30T13:33:30.487Z,28.12
2022-07-30T13:35:57.457Z,28.41
2022-07-30T13:38:24.508Z,27.74
2022-07-30T13:40:51.952Z,27.86
2022-07-30T13:43:19.696Z,27.79
2022-07-30T13:45:47.315Z,27.16
2022-07-30T13:48:14.498Z,27.11
2022-07-30T13:50:42.221Z,27.50
2022-07-30T13:53:10.423Z,27.77
2022-07-30T13:55:38.327Z,28.24
2022-07-30T13:58:07.077Z,28.23
2022-07-30T14:00:37.100Z,27.72
2022-07-30T14:03:07.742Z,27.43
2022-07-30T14:05:41.990Z,28.05
2022-07-30T14:08:12.082Z,28.31
2022-07-30T14:10:40.515Z,27.79
2022-07-30T14:13:09.837Z,27.53
2022-07-30T14:15:37.136Z,28.01
2022-07-30T14:18:06.100Z,28.47
2022-07-30T14:20:33.021Z,28.53
2022-07-30T14:23:00.073Z,28.80
2022-07-30T14:25:27.356Z,29.46
2022-07-30T14:27:54.276Z,29.04
2022-07-30T14:30:21.545Z,28.89
2022-07-30T14:32:48.475Z,27.96
2022-07-30T14:35:15.430Z,27.85
2022-07-30T14:37:42.396Z,28.14
2022-07-30T14:40:11.847Z,28.61
2022-07-30T14:42:40.096Z,28.89
2022-07-30T14:45:10.693Z,28.55
2022-07-30T14:47:38.275Z,29.23
2022-07-30T14:50:05.908Z,29.15
2022-07-30T14:52:36.986Z,28.75
2022-07-30T14:55:07.450Z,29.74
2022-07-30T14:57:34.897Z,29.47
2022-07-30T15:00:02.631Z,29.64
2022-07-30T15:02:29.660Z,29.64
2022-07-30T15:04:56.467Z,29.55
2022-07-30T15:07:23.341Z,29.39
2022-07-30T15:09:50.264Z,29.50
2022-07-30T15:12:26.561Z,29.60
2022-07-30T15:14:54.307Z,29.77
2022-07-30T15:17:21.149Z,29.10
2022-07-30T15:19:50.604Z,29.27
2022-07-30T15:22:20.110Z,29.42
2022-07-30T15:24:46.994Z,29.24
2022-07-30T15:27:13.926Z,28.89
2022-07-30T15:29:40.937Z,28.66
2022-07-30T15:32:08.080Z,28.57
2022-07-30T15:34:35.205Z,28.48
2022-07-30T15:37:03.676Z,28.40
2022-07-30T15:39:33.172Z,29.01
2022-07-30T15:42:04.186Z,29.02
2022-07-30T15:44:31.635Z,28.62
2022-07-30T15:46:59.258Z,28.59
2022-07-30T15:49:26.562Z,28.61
2022-07-30T15:51:53.815Z,28.64
2022-07-30T15:54:25.451Z,28.38
2022-07-30T15:56:54.141Z,28.59
2022-07-30T15:59:28.407Z,28.44
2022-07-30T16:01:55.283Z,28.91
2022-07-30T16:04:31.887Z,27.77
2022-07-30T16:07:00.703Z,27.43
2022-07-30T16:09:27.975Z,28.09
2022-07-30T16:11:54.752Z,27.94
2022-07-30T16:14:21.775Z,28.16
2022-07-30T16:16:48.921Z,28.46
2022-07-30T16:19:15.746Z,28.46
2022-07-30T16:21:42.635Z,28.77
2022-07-30T16:24:09.447Z,28.71
2022-07-30T16:26:37.365Z,28.53
2022-07-30T16:29:05.015Z,28.19
2022-07-30T16:31:31.995Z,27.61
2022-07-30T16:33:58.839Z,27.61
2022-07-30T16:36:25.674Z,27.83
2022-07-30T16:38:52.605Z,28.21
2022-07-30T16:41:19.392Z,28.35
2022-07-30T16:43:46.305Z,28.33
2022-07-30T16:46:13.657Z,28.32
2022-07-30T16:48:40.598Z,28.52
2022-07-30T16:51:07.714Z,28.73
2022-07-30T16:53:35.896Z,28.78
2022-07-30T16:56:02.866Z,28.66
2022-07-30T16:58:30.893Z,28.90
2022-07-30T17:00:58.538Z,28.71
2022-07-30T17:03:25.802Z,28.60
2022-07-30T17:05:53.783Z,28.80
2022-07-30T17:08:25.063Z,28.84
2022-07-30T17:10:52.974Z,28.76
2022-07-30T17:13:20.490Z,28.14
2022-07-30T17:15:47.399Z,28.43
2022-07-30T17:18:14.465Z,28.55
2022-07-30T17:20:41.392Z,28.52
2022-07-30T17:23:08.256Z,28.58
2022-07-30T17:25:35.256Z,28.44
2022-07-30T17:28:02.648Z,28.64
2022-07-30T17:30:30.122Z,28.76
2022-07-30T17:32:57.115Z,28.78
2022-07-30T17:35:24.978Z,28.74
2022-07-30T17:37:52.416Z,28.63
2022-07-30T17:40:28.342Z,28.66
2022-07-30T17:43:03.810Z,28.70
2022-07-30T17:45:32.228Z,28.47
2022-07-30T17:47:59.135Z,28.40
2022-07-30T17:50:25.985Z,28.48
2022-07-30T17:52:52.897Z,28.57
2022-07-30T17:55:19.641Z,28.41
2022-07-30T17:57:46.514Z,28.49
2022-07-30T18:00:13.792Z,28.46
2022-07-30T18:02:40.592Z,28.58
2022-07-30T18:05:08.706Z,28.55
2022-07-30T18:07:35.579Z,28.55
2022-07-30T18:10:02.397Z,28.29
2022-07-30T18:12:29.279Z,28.41
2022-07-30T18:14:56.237Z,28.41
2022-07-30T18:17:23.313Z,28.46
2022-07-30T18:19:50.568Z,28.44
2022-07-30T18:22:22.190Z,28.60
2022-07-30T18:24:57.630Z,28.61
2022-07-30T18:27:24.476Z,28.49
2022-07-30T18:29:51.351Z,28.27
2022-07-30T18:32:18.353Z,28.40
2022-07-30T18:34:45.206Z,28.39
2022-07-30T18:37:12.006Z,28.29
2022-07-30T18:39:38.869Z,28.21
2022-07-30T18:42:06.438Z,28.21
2022-07-30T18:44:34.004Z,28.05
2022-07-30T18:47:00.947Z,27.98
2022-07-30T18:49:36.714Z,27.85
2022-07-30T18:52:06.666Z,27.95
2022-07-30T18:54:34.609Z,27.86
2022-07-30T18:57:01.496Z,27.73
2022-07-30T18:59:29.098Z,27.75
2022-07-30T19:01:55.997Z,27.59
2022-07-30T19:04:22.835Z,27.57
2022-07-30T19:06:49.874Z,27.52
2022-07-30T19:09:18.024Z,27.37
2022-07-30T19:11:48.180Z,27.07
2022-07-30T19:14:15.528Z,26.95
2022-07-30T19:16:44.328Z,26.90
2022-07-30T19:19:15.018Z,26.86
2022-07-30T19:21:42.176Z,26.66
2022-07-30T19:24:09.917Z,26.27
2022-07-30T19:26:39.098Z,26.29
2022-07-30T19:29:10.046Z,26.19
2022-07-30T19:31:37.008Z,26.12
2022-07-30T19:34:04.546Z,26.11
2022-07-30T19:36:31.626Z,26.00
2022-07-30T19:38:59.046Z,25.90
2022-07-30T19:41:30.241Z,25.85
2022-07-30T19:43:57.937Z,25.73
2022-07-30T19:46:25.426Z,25.78
2022-07-30T19:48:52.373Z,25.75
2022-07-30T19:51:20.692Z,25.69
2022-07-30T19:53:51.926Z,25.59
2022-07-30T19:56:19.564Z,25.63
2022-07-30T19:58:46.601Z,25.61
2022-07-30T20:01:15.850Z,25.55
2022-07-30T20:03:45.842Z,24.89
2022-07-30T20:06:15.134Z,25.18
2022-07-30T20:08:44.715Z,25.21
2022-07-30T20:11:16.392Z,25.11
2022-07-30T20:13:59.727Z,25.18
2022-07-30T20:16:26.645Z,25.02
2022-07-30T20:18:54.760Z,25.15
2022-07-30T20:21:21.825Z,25.03
2022-07-30T20:24:08.898Z,25.07
2022-07-30T20:26:37.426Z,25.10
2022-07-30T20:29:09.201Z,24.69
2022-07-30T20:31:45.999Z,24.76
2022-07-30T20:34:16.279Z,24.72
2022-07-30T20:36:45.000Z,24.70
2022-07-30T20:39:18.546Z,24.85
2022-07-30T20:41:46.890Z,24.79
2022-07-30T20:44:23.348Z,24.78
2022-07-30T20:46:52.828Z,24.79
2022-07-30T20:49:24.104Z,24.55
2022-07-30T20:51:55.589Z,24.69
2022-07-30T20:54:22.521Z,24.52
2022-07-30T20:56:51.027Z,24.61
2022-07-30T20:59:18.624Z,24.54
2022-07-30T21:01:51.015Z,24.45
2022-07-30T21:04:23.840Z,24.38
2022-07-30T21:06:52.705Z,24.37
2022-07-30T21:09:20.471Z,24.01
2022-07-30T21:11:50.303Z,23.88
2022-07-30T21:14:18.335Z,24.14
2022-07-30T21:16:47.268Z,24.01
2022-07-30T21:19:16.615Z,24.19
2022-07-30T21:21:48.265Z,24.17
2022-07-30T21:24:19.460Z,24.20
2022-07-30T21:26:51.427Z,24.18
2022-07-30T21:29:19.138Z,24.32
2022-07-30T21:32:11.427Z,23.98
2022-07-30T21:34:40.185Z,23.64
2022-07-30T21:37:07.565Z,23.75
2022-07-30T21:39:39.988Z,23.41
2022-07-30T21:42:10.518Z,23.23
2022-07-30T21:44:38.480Z,22.97
2022-07-30T21:47:10.188Z,23.22
2022-07-30T21:49:38.611Z,23.15
2022-07-30T21:52:06.901Z,22.97
2022-07-30T21:54:45.603Z,22.71
2022-07-30T21:57:23.312Z,22.95
2022-07-30T21:59:53.897Z,22.96
2022-07-30T22:02:22.276Z,22.98
2022-07-30T22:04:51.343Z,22.93
2022-07-30T22:07:18.315Z,22.96
2022-07-30T22:09:45.350Z,23.01
2022-07-30T22:14:59.455Z,23.07
2022-07-30T22:17:36.741Z,23.03
2022-07-30T22:20:14.987Z,23.10
2022-07-30T22:22:42.033Z,23.07
2022-07-30T22:25:10.891Z,23.08
2022-07-30T22:27:56.388Z,23.07
2022-07-30T22:30:29.761Z,22.97
2022-07-30T22:33:20.026Z,22.99
2022-07-30T22:35:49.701Z,22.94
2022-07-30T22:38:19.550Z,22.97
2022-07-30T22:40:47.034Z,23.03
2022-07-30T22:43:16.336Z,23.08
2022-07-30T22:45:48.774Z,22.84
2022-07-30T22:48:17.504Z,22.86
2022-07-30T22:50:46.327Z,22.82
2022-07-30T22:53:56.234Z,22.65
2022-07-30T22:56:02.863Z,22.71
2022-07-30T22:58:30.695Z,22.80
2022-07-30T23:00:57.502Z,22.52
2022-07-30T23:03:24.431Z,22.68
2022-07-30T23:05:55.233Z,22.56
2022-07-30T23:08:29.842Z,22.32
2022-07-30T23:10:57.395Z,22.04
2022-07-30T23:12:28.380Z,22.98
2022-07-30T23:13:24.116Z,21.84
2022-07-30T23:15:50.941Z,22.00
2022-07-30T23:18:17.774Z,22.11
2022-07-30T23:20:44.614Z,22.08
2022-07-30T23:23:11.743Z,21.38
2022-07-30T23:25:39.446Z,21.68
2022-07-30T23:28:06.723Z,21.83
2022-07-30T23:30:34.475Z,21.91
2022-07-30T23:33:01.820Z,21.87
2022-07-30T23:35:28.734Z,21.92
2022-07-30T23:37:55.536Z,21.83
2022-07-30T23:40:23.553Z,21.90
2022-07-30T23:42:51.110Z,21.87
2022-07-30T23:45:18.353Z,21.63
2022-07-30T23:47:56.596Z,21.53
2022-07-30T23:50:31.723Z,21.53
2022-07-30T23:52:58.514Z,21.42
2022-07-30T23:55:25.354Z,21.47
2022-07-30T23:57:52.132Z,21.29
